createdAt,value
2017-02-27T00:00:35.978Z,0
2017-02-27T00:01:36.747Z,0
2017-02-27T00:02:35.965Z,0
2017-02-27T00:03:36.347Z,0
2017-02-27T00:04:36.298Z,0
2017-02-27T00:05:36.307Z,0
2017-02-27T00:06:35.924Z,0
2017-02-27T00:07:36.303Z,0
2017-02-27T00:08:36.250Z,0
2017-02-27T00:09:36.641Z,0
2017-02-27T00:10:36.236Z,0
2017-02-27T00:11:36.210Z,0
2017-02-27T00:12:36.184Z,0
2017-02-27T00:13:36.181Z,0
2017-02-27T00:14:36.137Z,0
2017-02-27T00:15:36.123Z,0
2017-02-27T00:16:36.125Z,0
2017-02-27T00:17:36.497Z,0
2017-02-27T00:18:36.481Z,0
2017-02-27T00:19:36.468Z,0
2017-02-27T00:20:36.067Z,0
2017-02-27T00:21:36.045Z,0
2017-02-27T00:22:36.398Z,0
2017-02-27T00:23:35.996Z,0
2017-02-27T00:24:35.252Z,0
2017-02-27T00:25:36.369Z,0
2017-02-27T00:26:35.962Z,0
2017-02-27T00:27:35.944Z,0
2017-02-27T00:28:36.310Z,0
2017-02-27T00:29:36.304Z,0
2017-02-27T00:30:36.275Z,0
2017-02-27T00:31:36.250Z,0
2017-02-27T00:32:35.837Z,0
2017-02-27T00:33:35.880Z,0
2017-02-27T00:34:35.802Z,0
2017-02-27T00:35:35.829Z,0
2017-02-27T00:36:35.768Z,0
2017-02-27T00:37:35.410Z,0
2017-02-27T00:38:36.148Z,0
2017-02-27T00:39:35.337Z,0
2017-02-27T00:40:35.699Z,0
2017-02-27T00:41:35.691Z,0
2017-02-27T00:42:36.122Z,0
2017-02-27T00:43:35.694Z,0
2017-02-27T00:44:36.041Z,0
2017-02-27T00:45:36.035Z,0
2017-02-27T00:46:35.241Z,0
2017-02-27T00:47:35.644Z,0
2017-02-27T00:48:35.962Z,0
2017-02-27T00:49:35.616Z,0
2017-02-27T00:50:35.932Z,0
2017-02-27T00:51:35.928Z,0
2017-02-27T00:52:35.941Z,0
2017-02-27T00:53:35.522Z,0
2017-02-27T00:54:35.484Z,0
2017-02-27T00:55:35.104Z,0
2017-02-27T00:56:35.437Z,0
2017-02-27T00:57:35.433Z,0
2017-02-27T00:58:35.790Z,0
2017-02-27T00:59:35.789Z,0
2017-02-27T01:00:35.773Z,0
2017-02-27T01:01:35.394Z,0
2017-02-27T01:02:35.341Z,0
2017-02-27T01:03:35.759Z,0
2017-02-27T01:04:35.722Z,0
2017-02-27T01:05:35.708Z,0
2017-02-27T01:06:35.295Z,0
2017-02-27T01:07:35.663Z,0
2017-02-27T01:08:35.273Z,0
2017-02-27T01:09:35.602Z,0
2017-02-27T01:10:35.638Z,0
2017-02-27T01:11:35.606Z,0
2017-02-27T01:12:35.210Z,0
2017-02-27T01:13:35.560Z,0
2017-02-27T01:14:35.554Z,0
2017-02-27T01:15:34.771Z,0
2017-02-27T01:16:35.512Z,0
2017-02-27T01:17:35.503Z,0
2017-02-27T01:18:35.485Z,0
2017-02-27T01:19:35.073Z,0
2017-02-27T01:20:35.460Z,0
2017-02-27T01:21:35.401Z,0
2017-02-27T01:22:34.652Z,0
2017-02-27T01:23:35.406Z,0
2017-02-27T01:24:35.047Z,0
2017-02-27T01:25:35.383Z,0
2017-02-27T01:26:35.376Z,0
2017-02-27T01:27:35.335Z,0
2017-02-27T01:28:34.923Z,0
2017-02-27T01:29:35.309Z,0
2017-02-27T01:30:34.901Z,0
2017-02-27T01:31:35.269Z,0
2017-02-27T01:32:34.907Z,0
2017-02-27T01:33:34.934Z,0
2017-02-27T01:34:35.226Z,0
2017-02-27T01:52:48.551Z,0
2017-02-27T01:52:59.123Z,0
2017-02-27T01:53:59.095Z,0
2017-02-27T01:54:59.089Z,0
2017-02-27T01:55:58.650Z,0
2017-02-27T01:56:58.272Z,0
2017-02-27T01:57:58.632Z,0
2017-02-27T01:58:58.632Z,0
2017-02-27T01:59:58.589Z,0
2017-02-27T02:00:58.609Z,0
2017-02-27T02:01:58.976Z,0
2017-02-27T02:02:58.569Z,0
2017-02-27T02:03:58.534Z,0
2017-02-27T02:04:58.558Z,0
2017-02-27T02:05:58.901Z,0
2017-02-27T02:06:58.861Z,0
2017-02-27T02:07:58.911Z,0
2017-02-27T02:08:58.854Z,0
2017-02-27T02:09:58.818Z,0
2017-02-27T02:10:58.865Z,0
2017-02-27T02:11:58.420Z,0
2017-02-27T02:12:58.399Z,0
2017-02-27T02:13:58.791Z,0
2017-02-27T02:14:58.752Z,0
2017-02-27T02:15:58.781Z,0
2017-02-27T02:16:58.344Z,0
2017-02-27T02:17:58.336Z,0
2017-02-27T02:18:58.712Z,0
2017-02-27T02:19:57.904Z,0
2017-02-27T02:20:57.931Z,0
2017-02-27T02:21:58.263Z,0
2017-02-27T02:22:57.871Z,0
2017-02-27T02:23:57.843Z,0
2017-02-27T02:24:58.209Z,0
2017-02-27T02:25:58.585Z,0
2017-02-27T02:26:58.592Z,0
2017-02-27T02:27:58.559Z,0
2017-02-27T02:28:58.542Z,0
2017-02-27T02:29:58.131Z,0
2017-02-27T02:30:58.532Z,0
2017-02-27T02:31:58.551Z,0
2017-02-27T02:32:58.115Z,0
2017-02-27T02:33:58.458Z,0
2017-02-27T02:34:58.485Z,0
2017-02-27T02:35:57.652Z,0
2017-02-27T02:36:58.449Z,0
2017-02-27T02:37:58.019Z,0
2017-02-27T02:38:58.371Z,0
2017-02-27T02:39:58.398Z,0
2017-02-27T02:40:58.350Z,0
2017-02-27T02:41:58.389Z,0
2017-02-27T02:42:58.374Z,0
2017-02-27T02:43:58.306Z,0
2017-02-27T02:44:58.326Z,0
2017-02-27T02:45:58.286Z,0
2017-02-27T02:46:58.264Z,0
2017-02-27T02:47:58.255Z,0
2017-02-27T02:48:58.260Z,0
2017-02-27T02:49:58.224Z,0
2017-02-27T02:50:58.239Z,0
2017-02-27T02:51:58.213Z,0
2017-02-27T02:52:57.814Z,0
2017-02-27T02:53:57.782Z,0
2017-02-27T02:54:57.769Z,0
2017-02-27T02:55:57.753Z,0
2017-02-27T02:56:58.132Z,0
2017-02-27T02:57:57.698Z,0
2017-02-27T02:58:58.077Z,0
2017-02-27T02:59:58.079Z,0
2017-02-27T03:00:58.077Z,0
2017-02-27T03:01:57.690Z,0
2017-02-27T03:02:57.255Z,0
2017-02-27T03:03:58.011Z,0
2017-02-27T03:04:58.033Z,0
2017-02-27T03:05:57.989Z,0
2017-02-27T03:06:57.585Z,0
2017-02-27T03:07:57.955Z,0
2017-02-27T03:08:57.968Z,0
2017-02-27T03:09:57.943Z,0
2017-02-27T03:10:57.927Z,0
2017-02-27T03:11:57.899Z,0
2017-02-27T03:12:57.895Z,0
2017-02-27T03:13:57.494Z,0
2017-02-27T03:14:57.861Z,0
2017-02-27T03:15:57.466Z,0
2017-02-27T03:16:57.050Z,0
2017-02-27T03:17:57.419Z,0
2017-02-27T03:18:57.401Z,0
2017-02-27T03:19:57.773Z,0
2017-02-27T03:20:57.013Z,0
2017-02-27T03:21:57.388Z,0
2017-02-27T03:22:57.331Z,0
2017-02-27T03:23:57.765Z,0
2017-02-27T03:24:57.303Z,0
2017-02-27T03:25:56.902Z,0
2017-02-27T03:26:56.911Z,0
2017-02-27T03:27:57.259Z,0
2017-02-27T03:28:57.260Z,0
2017-02-27T03:29:57.232Z,0
2017-02-27T03:30:56.855Z,0
2017-02-27T03:31:57.627Z,0
2017-02-27T03:32:57.579Z,0
2017-02-27T03:33:57.564Z,0
2017-02-27T03:34:57.545Z,0
2017-02-27T03:35:57.542Z,0
2017-02-27T03:36:57.522Z,0
2017-02-27T03:37:57.539Z,0
2017-02-27T03:38:57.087Z,0
2017-02-27T03:39:57.491Z,0
2017-02-27T03:40:57.044Z,0
2017-02-27T03:41:57.409Z,0
2017-02-27T03:42:57.450Z,0
2017-02-27T03:43:57.412Z,0
2017-02-27T03:44:57.387Z,0
2017-02-27T03:45:56.972Z,0
2017-02-27T03:46:56.957Z,0
2017-02-27T03:47:57.337Z,0
2017-02-27T03:48:57.368Z,0
2017-02-27T03:49:56.932Z,0
2017-02-27T03:50:56.901Z,0
2017-02-27T03:51:57.254Z,0
2017-02-27T03:52:56.885Z,0
2017-02-27T03:53:56.844Z,0
2017-02-27T03:54:56.849Z,0
2017-02-27T03:55:56.826Z,0
2017-02-27T03:56:57.186Z,0
2017-02-27T03:57:57.160Z,0
2017-02-27T03:58:57.131Z,0
2017-02-27T03:59:57.160Z,0
2017-02-27T04:00:57.189Z,0
2017-02-27T04:01:57.083Z,0
2017-02-27T04:02:57.079Z,0
2017-02-27T04:03:57.070Z,0
2017-02-27T04:04:57.051Z,0
2017-02-27T04:05:57.045Z,0
2017-02-27T04:06:56.632Z,0
2017-02-27T04:07:57.008Z,0
2017-02-27T04:08:56.217Z,0
2017-02-27T04:09:56.969Z,0
2017-02-27T04:10:56.550Z,0
2017-02-27T04:11:56.931Z,0
2017-02-27T04:12:56.919Z,0
2017-02-27T04:13:56.930Z,0
2017-02-27T04:14:56.898Z,0
2017-02-27T04:15:56.488Z,0
2017-02-27T04:16:56.865Z,0
2017-02-27T04:17:56.817Z,0
2017-02-27T04:18:56.457Z,0
2017-02-27T04:19:56.425Z,0
2017-02-27T04:20:56.410Z,0
2017-02-27T04:21:56.778Z,0
2017-02-27T04:22:55.973Z,0
2017-02-27T04:23:56.357Z,0
2017-02-27T04:24:56.755Z,0
2017-02-27T04:25:55.959Z,0
2017-02-27T04:26:56.694Z,0
2017-02-27T04:27:56.681Z,0
2017-02-27T04:28:56.650Z,0
2017-02-27T04:29:56.671Z,0
2017-02-27T04:30:56.261Z,0
2017-02-27T04:31:56.215Z,0
2017-02-27T04:32:56.227Z,0
2017-02-27T04:33:56.177Z,0
2017-02-27T04:34:56.200Z,0
2017-02-27T04:35:56.513Z,0
2017-02-27T04:36:56.122Z,0
2017-02-27T04:37:56.154Z,0
2017-02-27T04:38:56.115Z,0
2017-02-27T04:39:56.099Z,0
2017-02-27T04:40:56.468Z,0
2017-02-27T04:41:56.473Z,0
2017-02-27T04:42:56.433Z,0
2017-02-27T04:43:56.469Z,0
2017-02-27T04:44:56.379Z,0
2017-02-27T04:45:56.385Z,0
2017-02-27T04:46:56.374Z,0
2017-02-27T04:47:56.345Z,0
2017-02-27T04:48:56.354Z,0
2017-02-27T04:49:56.311Z,0
2017-02-27T04:50:56.316Z,0
2017-02-27T04:51:56.277Z,0
2017-02-27T04:52:56.264Z,0
2017-02-27T04:53:56.243Z,0
2017-02-27T04:54:55.840Z,0
2017-02-27T04:55:56.209Z,0
2017-02-27T04:56:56.193Z,0
2017-02-27T04:57:56.228Z,0
2017-02-27T04:58:56.181Z,0
2017-02-27T04:59:55.381Z,0
2017-02-27T05:00:55.748Z,0
2017-02-27T05:01:56.120Z,0
2017-02-27T05:02:55.342Z,0
2017-02-27T05:03:55.319Z,0
2017-02-27T05:04:55.710Z,0
2017-02-27T05:05:56.041Z,0
2017-02-27T05:06:56.034Z,0
2017-02-27T05:07:56.080Z,0
2017-02-27T05:08:56.026Z,0
2017-02-27T05:09:56.045Z,0
2017-02-27T05:10:55.974Z,0
2017-02-27T05:11:56.006Z,0
2017-02-27T05:12:55.565Z,0
2017-02-27T05:13:55.594Z,0
2017-02-27T05:14:55.930Z,0
2017-02-27T05:15:55.924Z,0
2017-02-27T05:16:55.509Z,0
2017-02-27T05:17:54.739Z,0
2017-02-27T05:18:55.857Z,0
2017-02-27T05:19:55.479Z,0
2017-02-27T05:20:55.422Z,0
2017-02-27T05:21:55.815Z,0
2017-02-27T05:22:55.407Z,0
2017-02-27T05:23:55.393Z,0
2017-02-27T05:24:55.763Z,0
2017-02-27T05:25:55.785Z,0
2017-02-27T05:26:55.765Z,0
2017-02-27T05:27:55.367Z,0
2017-02-27T05:28:55.704Z,0
2017-02-27T05:29:55.299Z,0
2017-02-27T05:30:55.308Z,0
2017-02-27T05:31:55.682Z,0
2017-02-27T05:32:55.262Z,0
2017-02-27T05:33:55.602Z,0
2017-02-27T05:34:55.590Z,0
2017-02-27T05:35:55.569Z,0
2017-02-27T05:36:55.601Z,0
2017-02-27T05:37:55.555Z,0
2017-02-27T05:38:55.545Z,0
2017-02-27T05:39:55.517Z,0
2017-02-27T05:40:55.524Z,0
2017-02-27T05:41:55.485Z,0
2017-02-27T05:42:55.459Z,0
2017-02-27T05:43:55.468Z,0
2017-02-27T05:44:55.446Z,0
2017-02-27T05:45:55.406Z,0
2017-02-27T05:46:55.401Z,5
2017-02-27T05:47:55.434Z,5
2017-02-27T05:48:55.378Z,5
2017-02-27T05:49:54.647Z,5
2017-02-27T05:50:55.011Z,5
2017-02-27T05:51:54.950Z,10
2017-02-27T05:52:54.944Z,10
2017-02-27T05:53:54.920Z,10
2017-02-27T05:54:55.294Z,15
2017-02-27T05:55:54.913Z,15
2017-02-27T05:56:54.901Z,20
2017-02-27T05:57:54.885Z,20
2017-02-27T05:58:54.844Z,25
2017-02-27T05:59:54.836Z,25
2017-02-27T06:00:55.249Z,30
2017-02-27T06:01:55.182Z,30
2017-02-27T06:02:55.184Z,35
2017-02-27T06:03:55.208Z,35
2017-02-27T06:04:55.213Z,40
2017-02-27T06:05:55.163Z,45
2017-02-27T06:06:54.751Z,45
2017-02-27T06:07:55.088Z,50
2017-02-27T06:08:55.098Z,50
2017-02-27T06:09:55.087Z,50
2017-02-27T06:10:54.310Z,55
2017-02-27T06:11:54.671Z,55
2017-02-27T06:12:55.056Z,55
2017-02-27T06:13:54.235Z,55
2017-02-27T06:14:54.632Z,60
2017-02-27T06:15:54.228Z,65
2017-02-27T06:16:54.965Z,70
2017-02-27T06:17:54.565Z,75
2017-02-27T06:18:54.559Z,80
2017-02-27T06:19:54.928Z,85
2017-02-27T06:20:54.927Z,95
2017-02-27T06:21:54.931Z,100
2017-02-27T06:22:54.939Z,105
2017-02-27T06:23:54.881Z,120
2017-02-27T06:24:54.878Z,130
2017-02-27T06:25:54.887Z,145
2017-02-27T06:26:54.823Z,155
2017-02-27T06:27:54.836Z,170
2017-02-27T06:28:54.851Z,185
2017-02-27T06:29:54.406Z,190
2017-02-27T06:30:54.771Z,200
2017-02-27T06:31:54.384Z,210
2017-02-27T06:32:54.788Z,215
2017-02-27T06:33:54.777Z,220
2017-02-27T06:34:54.337Z,225
2017-02-27T06:35:54.365Z,230
2017-02-27T06:36:54.321Z,240
2017-02-27T06:37:54.287Z,250
2017-02-27T06:38:54.257Z,260
2017-02-27T06:39:54.646Z,275
2017-02-27T06:40:54.670Z,285
2017-02-27T06:41:54.615Z,305
2017-02-27T06:42:54.627Z,320
2017-02-27T06:43:54.585Z,315
2017-02-27T06:44:54.582Z,330
2017-02-27T06:45:54.544Z,325
2017-02-27T06:46:54.584Z,325
2017-02-27T06:47:54.518Z,335
2017-02-27T06:48:54.502Z,350
2017-02-27T06:49:54.497Z,395
2017-02-27T06:50:54.477Z,400
2017-02-27T06:51:54.467Z,440
2017-02-27T06:52:54.450Z,445
2017-02-27T06:53:54.501Z,400
2017-02-27T06:54:54.414Z,345
2017-02-27T06:55:54.412Z,340
2017-02-27T06:56:54.369Z,370
2017-02-27T06:57:54.401Z,405
2017-02-27T06:58:54.407Z,360
2017-02-27T06:59:54.376Z,375
2017-02-27T07:00:54.368Z,420
2017-02-27T07:01:53.929Z,470
2017-02-27T07:02:54.324Z,490
2017-02-27T07:03:54.309Z,505
2017-02-27T07:04:54.331Z,580
2017-02-27T07:05:54.276Z,545
2017-02-27T07:06:54.249Z,460
2017-02-27T07:07:54.249Z,525
2017-02-27T07:08:54.223Z,540
2017-02-27T07:09:54.211Z,450
2017-02-27T07:10:54.221Z,370
2017-02-27T07:11:54.202Z,355
2017-02-27T07:12:54.207Z,345
2017-02-27T07:13:54.164Z,340
2017-02-27T07:14:54.161Z,345
2017-02-27T07:15:54.167Z,350
2017-02-27T07:16:54.167Z,355
2017-02-27T07:17:54.102Z,360
2017-02-27T07:18:54.091Z,365
2017-02-27T07:19:53.693Z,375
2017-02-27T07:20:53.679Z,385
2017-02-27T07:21:54.037Z,400
2017-02-27T07:22:54.043Z,415
2017-02-27T07:23:53.601Z,430
2017-02-27T07:24:54.020Z,460
2017-02-27T07:25:53.588Z,495
2017-02-27T07:26:53.999Z,525
2017-02-27T07:27:53.567Z,540
2017-02-27T07:28:53.917Z,530
2017-02-27T07:29:53.925Z,520
2017-02-27T07:30:53.904Z,495
2017-02-27T07:31:53.896Z,465
2017-02-27T07:32:53.495Z,455
2017-02-27T07:33:53.875Z,455
2017-02-27T07:34:53.813Z,460
2017-02-27T07:35:53.873Z,455
2017-02-27T07:36:53.818Z,450
2017-02-27T07:37:53.815Z,440
2017-02-27T07:38:53.795Z,445
2017-02-27T07:39:53.761Z,445
2017-02-27T07:40:53.790Z,445
2017-02-27T07:41:53.751Z,460
2017-02-27T07:42:53.698Z,485
2017-02-27T07:43:52.925Z,760
2017-02-27T07:44:53.680Z,870
2017-02-27T07:45:53.312Z,935
2017-02-27T07:46:53.669Z,1315
2017-02-27T07:47:53.646Z,1425
2017-02-27T07:48:53.634Z,1540
2017-02-27T07:49:53.223Z,1570
2017-02-27T07:50:53.652Z,1585
2017-02-27T07:51:53.597Z,1575
2017-02-27T07:52:53.568Z,1495
2017-02-27T07:53:53.534Z,1495
2017-02-27T07:54:53.544Z,1535
2017-02-27T07:55:53.575Z,1595
2017-02-27T07:56:53.519Z,1445
2017-02-27T07:57:53.101Z,1355
2017-02-27T07:58:53.505Z,1360
2017-02-27T07:59:53.464Z,1505
2017-02-27T08:00:53.485Z,1765
2017-02-27T08:01:53.036Z,1860
2017-02-27T08:02:53.412Z,1775
2017-02-27T08:03:53.392Z,1695
2017-02-27T08:04:53.454Z,1535
2017-02-27T08:05:53.367Z,1945
2017-02-27T08:06:53.389Z,1670
2017-02-27T08:07:53.371Z,1420
2017-02-27T08:08:53.349Z,1620
2017-02-27T08:09:53.321Z,1625
2017-02-27T08:10:52.980Z,1640
2017-02-27T08:11:53.307Z,1370
2017-02-27T08:12:53.284Z,1230
2017-02-27T08:13:53.282Z,1340
2017-02-27T08:14:53.258Z,1770
2017-02-27T08:15:53.258Z,1820
2017-02-27T08:16:53.275Z,1520
2017-02-27T08:17:53.202Z,1505
2017-02-27T08:18:53.246Z,1810
2017-02-27T08:19:53.212Z,1935
2017-02-27T08:20:53.186Z,2000
2017-02-27T08:21:53.180Z,2125
2017-02-27T08:22:52.750Z,2205
2017-02-27T08:23:52.765Z,2125
2017-02-27T08:24:53.159Z,2205
2017-02-27T08:25:53.109Z,2555
2017-02-27T08:26:53.132Z,2510
2017-02-27T08:27:53.112Z,2400
2017-02-27T08:28:53.065Z,2420
2017-02-27T08:29:53.063Z,2365
2017-02-27T08:30:53.072Z,2305
2017-02-27T08:31:53.031Z,1480
2017-02-27T08:32:53.064Z,1280
2017-02-27T08:33:53.032Z,2540
2017-02-27T08:34:52.611Z,2465
2017-02-27T08:35:53.037Z,2115
2017-02-27T08:36:52.998Z,2020
2017-02-27T08:37:52.996Z,2120
2017-02-27T08:38:52.972Z,1980
2017-02-27T08:39:52.954Z,1945
2017-02-27T08:40:52.942Z,2040
2017-02-27T08:41:52.918Z,2120
2017-02-27T08:42:52.926Z,2145
2017-02-27T08:43:52.901Z,2460
2017-02-27T08:44:52.915Z,2395
2017-02-27T08:45:52.912Z,2030
2017-02-27T08:46:52.893Z,2175
2017-02-27T08:47:52.858Z,2185
2017-02-27T08:48:52.888Z,2295
2017-02-27T08:49:52.840Z,2425
2017-02-27T08:50:52.432Z,2415
2017-02-27T08:51:52.859Z,1145
2017-02-27T08:52:52.033Z,1735
2017-02-27T08:53:52.812Z,2365
2017-02-27T08:54:52.787Z,2470
2017-02-27T08:55:52.772Z,2245
2017-02-27T08:56:52.803Z,2200
2017-02-27T08:57:52.746Z,2120
2017-02-27T08:58:52.764Z,1685
2017-02-27T08:59:52.744Z,1150
2017-02-27T09:00:52.706Z,1540
2017-02-27T09:01:52.733Z,1990
2017-02-27T09:02:51.936Z,1935
2017-02-27T09:03:52.669Z,2150
2017-02-27T09:04:52.683Z,2485
2017-02-27T09:05:52.640Z,2110
2017-02-27T09:06:52.654Z,2445
2017-02-27T09:07:52.641Z,3165
2017-02-27T09:08:52.623Z,2870
2017-02-27T09:09:52.574Z,2165
2017-02-27T09:10:52.576Z,1795
2017-02-27T09:11:52.586Z,1410
2017-02-27T09:12:51.798Z,1405
2017-02-27T09:13:52.585Z,1340
2017-02-27T09:14:52.142Z,1350
2017-02-27T09:15:52.485Z,1340
2017-02-27T09:16:52.098Z,1390
2017-02-27T09:17:52.501Z,1510
2017-02-27T09:18:52.475Z,1770
2017-02-27T09:19:51.724Z,2745
2017-02-27T09:20:52.107Z,3935
2017-02-27T09:21:52.091Z,3350
2017-02-27T09:22:51.655Z,3200
2017-02-27T09:23:52.040Z,2970
2017-02-27T09:24:52.012Z,2880
2017-02-27T09:25:51.992Z,2790
2017-02-27T09:26:52.388Z,2790
2017-02-27T09:27:52.385Z,2880
2017-02-27T09:28:51.962Z,2820
2017-02-27T09:29:52.327Z,3035
2017-02-27T09:30:52.340Z,3050
2017-02-27T09:31:52.342Z,2715
2017-02-27T09:32:51.921Z,2940
2017-02-27T09:33:52.359Z,3055
2017-02-27T09:34:52.303Z,2910
2017-02-27T09:35:52.290Z,3040
2017-02-27T09:36:52.292Z,3255
2017-02-27T09:37:52.279Z,2715
2017-02-27T09:38:52.240Z,2560
2017-02-27T09:39:52.203Z,2730
2017-02-27T09:40:52.204Z,2870
2017-02-27T09:41:52.182Z,2230
2017-02-27T09:42:52.172Z,2045
2017-02-27T09:43:52.154Z,1540
2017-02-27T09:44:52.142Z,2745
2017-02-27T09:45:52.122Z,1575
2017-02-27T09:46:52.135Z,1555
2017-02-27T09:47:52.114Z,1560
2017-02-27T09:48:52.078Z,1545
2017-02-27T09:49:52.097Z,1480
2017-02-27T09:50:52.125Z,1425
2017-02-27T09:51:52.090Z,1395
2017-02-27T09:52:52.042Z,1380
2017-02-27T09:53:52.010Z,1375
2017-02-27T09:54:52.022Z,1360
2017-02-27T09:55:51.997Z,1300
2017-02-27T09:56:52.003Z,1235
2017-02-27T09:57:51.968Z,1150
2017-02-27T09:58:51.966Z,1080
2017-02-27T09:59:51.961Z,1075
2017-02-27T10:00:51.978Z,1130
2017-02-27T10:01:51.913Z,1225
2017-02-27T10:02:51.889Z,1255
2017-02-27T10:03:51.887Z,1255
2017-02-27T10:04:51.900Z,1340
2017-02-27T10:05:51.870Z,1430
2017-02-27T10:06:51.855Z,1480
2017-02-27T10:07:51.797Z,1480
2017-02-27T10:08:51.824Z,1415
2017-02-27T10:09:51.812Z,1360
2017-02-27T10:10:51.810Z,1390
2017-02-27T10:11:51.780Z,1420
2017-02-27T10:12:51.775Z,1435
2017-02-27T10:13:51.736Z,1510
2017-02-27T10:14:51.735Z,1570
2017-02-27T10:15:51.317Z,1545
2017-02-27T10:16:51.695Z,1620
2017-02-27T10:17:51.674Z,2040
2017-02-27T10:18:51.650Z,2405
2017-02-27T10:19:51.302Z,2320
2017-02-27T10:20:51.655Z,1925
2017-02-27T10:21:51.599Z,1795
2017-02-27T10:22:51.604Z,1675
2017-02-27T10:23:51.594Z,1735
2017-02-27T10:24:51.571Z,1730
2017-02-27T10:25:51.548Z,1645
2017-02-27T10:26:51.557Z,1615
2017-02-27T10:27:51.510Z,1625
2017-02-27T10:28:51.166Z,1625
2017-02-27T10:29:51.513Z,1605
2017-02-27T10:30:51.528Z,1630
2017-02-27T10:31:51.471Z,1795
2017-02-27T10:32:51.448Z,1900
2017-02-27T10:33:51.436Z,1495
2017-02-27T10:34:51.416Z,1125
2017-02-27T10:35:51.418Z,1165
2017-02-27T10:36:51.377Z,1555
2017-02-27T10:37:51.367Z,1345
2017-02-27T10:38:51.351Z,1665
2017-02-27T10:39:51.357Z,1585
2017-02-27T10:40:51.339Z,2155
2017-02-27T10:41:51.341Z,1575
2017-02-27T10:42:51.274Z,2265
2017-02-27T10:43:51.279Z,1755
2017-02-27T10:44:51.284Z,1650
2017-02-27T10:45:51.265Z,2510
2017-02-27T10:46:51.233Z,2100
2017-02-27T10:47:51.241Z,2080
2017-02-27T10:48:51.204Z,1625
2017-02-27T10:49:51.188Z,1710
2017-02-27T10:50:51.173Z,1630
2017-02-27T10:51:51.204Z,2110
2017-02-27T10:52:51.161Z,2750
2017-02-27T10:53:51.109Z,1760
2017-02-27T10:54:51.089Z,1795
2017-02-27T10:55:51.082Z,1560
2017-02-27T10:56:51.129Z,1335
2017-02-27T10:57:51.053Z,1220
2017-02-27T10:58:51.056Z,1200
2017-02-27T10:59:51.036Z,1190
2017-02-27T11:00:51.025Z,1230
2017-02-27T11:01:51.034Z,1275
2017-02-27T11:02:50.993Z,1340
2017-02-27T11:03:50.981Z,1320
2017-02-27T11:04:50.964Z,1260
2017-02-27T11:05:50.970Z,1220
2017-02-27T11:06:50.915Z,1230
2017-02-27T11:07:50.938Z,1335
2017-02-27T11:08:50.903Z,1440
2017-02-27T11:09:50.877Z,1470
2017-02-27T11:10:50.854Z,1385
2017-02-27T11:11:50.839Z,1330
2017-02-27T11:12:50.871Z,1360
2017-02-27T11:13:50.838Z,1425
2017-02-27T11:14:50.801Z,1475
2017-02-27T11:15:50.767Z,1495
2017-02-27T11:16:50.780Z,1890
2017-02-27T11:17:50.771Z,1585
2017-02-27T11:18:50.763Z,1795
2017-02-27T11:19:50.759Z,2960
2017-02-27T11:20:50.736Z,1480
2017-02-27T11:21:50.710Z,1450
2017-02-27T11:22:50.680Z,1380
2017-02-27T11:23:50.704Z,1470
2017-02-27T11:24:50.681Z,1775
2017-02-27T11:25:50.642Z,1700
2017-02-27T11:26:50.611Z,1665
2017-02-27T11:27:50.611Z,1760
2017-02-27T11:28:50.587Z,2150
2017-02-27T11:29:50.608Z,1845
2017-02-27T11:30:50.558Z,1835
2017-02-27T11:31:50.547Z,1750
2017-02-27T11:32:50.534Z,1710
2017-02-27T11:33:50.522Z,1710
2017-02-27T11:34:50.470Z,1685
2017-02-27T11:35:50.496Z,1615
2017-02-27T11:36:50.471Z,1600
2017-02-27T11:37:50.447Z,1645
2017-02-27T11:38:50.427Z,1670
2017-02-27T11:39:50.432Z,1655
2017-02-27T11:40:50.414Z,1630
2017-02-27T11:41:50.375Z,1615
2017-02-27T11:42:50.387Z,1505
2017-02-27T11:43:50.332Z,1400
2017-02-27T11:44:49.940Z,1385
2017-02-27T11:45:50.384Z,1440
2017-02-27T11:46:50.294Z,1500
2017-02-27T11:47:50.293Z,1535
2017-02-27T11:48:50.274Z,1570
2017-02-27T11:49:49.881Z,1610
2017-02-27T11:50:50.256Z,1690
2017-02-27T11:51:50.219Z,1805
2017-02-27T11:52:50.222Z,1895
2017-02-27T11:53:50.188Z,3345
2017-02-27T11:54:50.246Z,1895
2017-02-27T11:55:50.210Z,2090
2017-02-27T11:56:50.145Z,2065
2017-02-27T11:57:50.140Z,2005
2017-02-27T11:58:50.127Z,1760
2017-02-27T11:59:50.137Z,1705
2017-02-27T12:00:50.061Z,1625
2017-02-27T12:01:50.059Z,1590
2017-02-27T12:02:50.079Z,1615
2017-02-27T12:03:50.055Z,1655
2017-02-27T12:04:50.038Z,1675
2017-02-27T12:05:50.046Z,1890
2017-02-27T12:06:50.043Z,1785
2017-02-27T12:07:50.000Z,1670
2017-02-27T12:08:49.599Z,1620
2017-02-27T12:09:49.961Z,1530
2017-02-27T12:10:49.958Z,1570
2017-02-27T12:11:49.937Z,1795
2017-02-27T12:12:49.913Z,1840
2017-02-27T12:13:49.883Z,1785
2017-02-27T12:14:49.893Z,1965
2017-02-27T12:15:49.510Z,2120
2017-02-27T12:16:49.456Z,2315
2017-02-27T12:17:49.848Z,2320
2017-02-27T12:18:49.827Z,2725
2017-02-27T12:19:49.445Z,1925
2017-02-27T12:20:49.813Z,1755
2017-02-27T12:21:49.775Z,1810
2017-02-27T12:22:49.962Z,1535
2017-02-27T12:23:49.166Z,1385
2017-02-27T12:24:49.743Z,1340
2017-02-27T12:25:49.722Z,1395
2017-02-27T12:26:49.708Z,1545
2017-02-27T12:27:49.309Z,2005
2017-02-27T12:28:49.322Z,2710
2017-02-27T12:29:49.674Z,2130
2017-02-27T12:30:49.620Z,1810
2017-02-27T12:31:49.658Z,1160
2017-02-27T12:32:49.642Z,1060
2017-02-27T12:33:49.646Z,1125
2017-02-27T12:34:49.203Z,1445
2017-02-27T12:35:49.547Z,2345
2017-02-27T12:36:49.559Z,2175
2017-02-27T12:37:49.529Z,3115
2017-02-27T12:38:49.526Z,2790
2017-02-27T12:39:49.547Z,2765
2017-02-27T12:40:49.518Z,2860
2017-02-27T12:41:49.473Z,3075
2017-02-27T12:42:49.489Z,3400
2017-02-27T12:43:49.422Z,2985
2017-02-27T12:44:49.436Z,2815
2017-02-27T12:45:49.459Z,2885
2017-02-27T12:46:49.412Z,2500
2017-02-27T12:47:49.393Z,3035
2017-02-27T12:48:48.976Z,3145
2017-02-27T12:49:49.367Z,3255
2017-02-27T12:50:48.957Z,3655
2017-02-27T12:51:49.328Z,3790
2017-02-27T12:52:48.806Z,3605
2017-02-27T12:53:48.904Z,2955
2017-02-27T12:54:49.269Z,3040
2017-02-27T12:55:49.291Z,3050
2017-02-27T12:56:48.887Z,2575
2017-02-27T12:57:49.287Z,2650
2017-02-27T12:58:49.216Z,3005
2017-02-27T12:59:48.816Z,2890
2017-02-27T13:00:49.207Z,3165
2017-02-27T13:01:49.191Z,3820
2017-02-27T13:02:48.416Z,3840
2017-02-27T13:03:49.136Z,3185
2017-02-27T13:04:49.343Z,3025
2017-02-27T13:05:49.165Z,3300
2017-02-27T13:06:49.143Z,3380
2017-02-27T13:07:48.741Z,2900
2017-02-27T13:08:49.098Z,2920
2017-02-27T13:09:49.078Z,3225
2017-02-27T13:10:49.068Z,3805
2017-02-27T13:11:49.040Z,3570
2017-02-27T13:12:49.038Z,3350
2017-02-27T13:13:48.647Z,3055
2017-02-27T13:14:49.054Z,2885
2017-02-27T13:15:48.636Z,3175
2017-02-27T13:16:48.653Z,3085
2017-02-27T13:17:48.992Z,2825
2017-02-27T13:18:48.965Z,2880
2017-02-27T13:19:48.992Z,2930
2017-02-27T13:20:48.952Z,3325
2017-02-27T13:21:48.980Z,2695
2017-02-27T13:22:48.911Z,2505
2017-02-27T13:23:48.903Z,2255
2017-02-27T13:24:48.554Z,2800
2017-02-27T13:25:48.882Z,2785
2017-02-27T13:26:48.893Z,2745
2017-02-27T13:27:48.521Z,2780
2017-02-27T13:28:48.702Z,2300
2017-02-27T13:29:48.862Z,2540
2017-02-27T13:30:48.852Z,2880
2017-02-27T13:31:48.838Z,2665
2017-02-27T13:32:48.801Z,2490
2017-02-27T13:34:02.471Z,2415
2017-02-27T13:34:48.791Z,2165
2017-02-27T13:36:02.202Z,2400
2017-02-27T13:36:48.617Z,2095
2017-02-27T13:37:48.408Z,2165
2017-02-27T13:38:48.733Z,2320
2017-02-27T13:39:48.724Z,2350
2017-02-27T13:40:48.331Z,2095
2017-02-27T13:41:48.944Z,1720
2017-02-27T13:42:48.313Z,1790
2017-02-27T13:43:48.673Z,985
2017-02-27T13:44:48.272Z,1200
2017-02-27T13:45:48.663Z,2450
2017-02-27T13:46:48.646Z,2130
2017-02-27T13:47:48.630Z,1870
2017-02-27T13:48:47.823Z,1190
2017-02-27T13:49:48.613Z,1425
2017-02-27T13:50:48.197Z,1410
2017-02-27T13:51:48.586Z,1615
2017-02-27T13:52:48.177Z,1910
2017-02-27T13:53:48.551Z,1420
2017-02-27T13:54:48.543Z,1370
2017-02-27T13:55:48.495Z,1355
2017-02-27T13:56:48.542Z,1620
2017-02-27T13:57:48.504Z,2710
2017-02-27T13:58:48.488Z,3665
2017-02-27T13:59:48.498Z,3290
2017-02-27T14:00:48.455Z,2940
2017-02-27T14:01:48.041Z,2605
2017-02-27T14:02:48.452Z,2570
2017-02-27T14:03:48.042Z,2485
2017-02-27T14:04:48.002Z,2730
2017-02-27T14:05:48.017Z,2800
2017-02-27T14:06:48.174Z,3205
2017-02-27T14:07:47.610Z,3445
2017-02-27T14:08:48.326Z,3165
2017-02-27T14:09:48.331Z,2990
2017-02-27T14:10:47.956Z,3290
2017-02-27T14:11:48.317Z,3575
2017-02-27T14:12:48.502Z,3370